sensor_id;sensor_type;location;lat;lon;timestamp;P1;durP1;ratioP1;P2;durP2;ratioP2
38053;SDS011;23859;50.672;7.164;2022-09-24T00:00:56;8.70;;;4.40;;
38053;SDS011;23859;50.672;7.164;2022-09-24T00:03:23;6.25;;;4.68;;
38053;SDS011;23859;50.672;7.164;2022-09-24T00:05:50;7.30;;;4.40;;
38053;SDS011;23859;50.672;7.164;2022-09-24T00:08:17;7.10;;;5.10;;
38053;SDS011;23859;50.672;7.164;2022-09-24T00:10:44;9.50;;;5.03;;
38053;SDS011;23859;50.672;7.164;2022-09-24T00:13:13;7.95;;;5.90;;
38053;SDS011;23859;50.672;7.164;2022-09-24T00:15:45;10.10;;;5.20;;
38053;SDS011;23859;50.672;7.164;2022-09-24T00:18:13;12.77;;;5.82;;
38053;SDS011;23859;50.672;7.164;2022-09-24T00:20:41;8.50;;;6.13;;
38053;SDS011;23859;50.672;7.164;2022-09-24T00:23:08;13.18;;;6.03;;
38053;SDS011;23859;50.672;7.164;2022-09-24T00:25:41;8.43;;;5.32;;
38053;SDS011;23859;50.672;7.164;2022-09-24T00:28:28;10.75;;;5.03;;
38053;SDS011;23859;50.672;7.164;2022-09-24T00:30:55;7.20;;;5.10;;
38053;SDS011;23859;50.672;7.164;2022-09-24T00:33:22;9.02;;;5.50;;
38053;SDS011;23859;50.672;7.164;2022-09-24T00:35:49;10.45;;;6.00;;
38053;SDS011;23859;50.672;7.164;2022-09-24T00:38:16;10.68;;;5.82;;
38053;SDS011;23859;50.672;7.164;2022-09-24T00:40:43;6.20;;;4.50;;
38053;SDS011;23859;50.672;7.164;2022-09-24T00:43:26;8.88;;;5.50;;
38053;SDS011;23859;50.672;7.164;2022-09-24T00:46:54;8.05;;;4.88;;
38053;SDS011;23859;50.672;7.164;2022-09-24T00:48:50;5.75;;;4.68;;
38053;SDS011;23859;50.672;7.164;2022-09-24T00:51:19;5.32;;;4.38;;
38053;SDS011;23859;50.672;7.164;2022-09-24T00:53:49;7.30;;;4.32;;
38053;SDS011;23859;50.672;7.164;2022-09-24T00:56:20;8.23;;;4.85;;
38053;SDS011;23859;50.672;7.164;2022-09-24T00:58:52;8.38;;;4.72;;
38053;SDS011;23859;50.672;7.164;2022-09-24T01:01:21;6.40;;;5.10;;
38053;SDS011;23859;50.672;7.164;2022-09-24T01:03:49;8.63;;;4.75;;
38053;SDS011;23859;50.672;7.164;2022-09-24T01:06:17;7.72;;;4.28;;
38053;SDS011;23859;50.672;7.164;2022-09-24T01:08:44;10.82;;;4.45;;
38053;SDS011;23859;50.672;7.164;2022-09-24T01:14:27;8.25;;;4.55;;
38053;SDS011;23859;50.672;7.164;2022-09-24T01:17:07;8.68;;;4.68;;
38053;SDS011;23859;50.672;7.164;2022-09-24T01:22:48;7.60;;;5.22;;
38053;SDS011;23859;50.672;7.164;2022-09-24T01:25:44;6.53;;;5.47;;
38053;SDS011;23859;50.672;7.164;2022-09-24T01:28:47;9.02;;;4.60;;
38053;SDS011;23859;50.672;7.164;2022-09-24T01:31:37;9.82;;;5.22;;
38053;SDS011;23859;50.672;7.164;2022-09-24T01:34:10;6.78;;;4.53;;
38053;SDS011;23859;50.672;7.164;2022-09-24T01:36:43;8.02;;;4.72;;
38053;SDS011;23859;50.672;7.164;2022-09-24T01:39:11;8.40;;;4.97;;
38053;SDS011;23859;50.672;7.164;2022-09-24T01:41:38;7.32;;;4.97;;
38053;SDS011;23859;50.672;7.164;2022-09-24T01:44:07;6.35;;;4.55;;
38053;SDS011;23859;50.672;7.164;2022-09-24T01:46:36;7.60;;;4.40;;
38053;SDS011;23859;50.672;7.164;2022-09-24T01:49:03;5.82;;;4.85;;
38053;SDS011;23859;50.672;7.164;2022-09-24T01:51:36;6.97;;;4.63;;
38053;SDS011;23859;50.672;7.164;2022-09-24T01:54:20;6.97;;;4.35;;
38053;SDS011;23859;50.672;7.164;2022-09-24T01:57:13;5.45;;;3.90;;
38053;SDS011;23859;50.672;7.164;2022-09-24T01:59:56;7.82;;;4.97;;
38053;SDS011;23859;50.672;7.164;2022-09-24T02:02:53;8.57;;;4.80;;
38053;SDS011;23859;50.672;7.164;2022-09-24T02:05:28;10.40;;;5.32;;
38053;SDS011;23859;50.672;7.164;2022-09-24T02:13:22;7.82;;;4.80;;
38053;SDS011;23859;50.672;7.164;2022-09-24T02:15:53;7.30;;;5.80;;
38053;SDS011;23859;50.672;7.164;2022-09-24T02:18:24;11.00;;;5.13;;
38053;SDS011;23859;50.672;7.164;2022-09-24T02:20:56;7.57;;;5.45;;
38053;SDS011;23859;50.672;7.164;2022-09-24T02:23:27;7.28;;;5.15;;
38053;SDS011;23859;50.672;7.164;2022-09-24T02:25:55;9.52;;;5.13;;
38053;SDS011;23859;50.672;7.164;2022-09-24T02:28:26;10.88;;;5.03;;
38053;SDS011;23859;50.672;7.164;2022-09-24T02:30:54;7.45;;;4.72;;
38053;SDS011;23859;50.672;7.164;2022-09-24T02:33:28;8.75;;;5.13;;
38053;SDS011;23859;50.672;7.164;2022-09-24T02:36:14;9.35;;;4.88;;
38053;SDS011;23859;50.672;7.164;2022-09-24T02:38:41;6.72;;;4.63;;
38053;SDS011;23859;50.672;7.164;2022-09-24T02:41:08;7.13;;;4.93;;
38053;SDS011;23859;50.672;7.164;2022-09-24T02:43:35;8.40;;;4.78;;
38053;SDS011;23859;50.672;7.164;2022-09-24T02:46:01;9.25;;;5.32;;
38053;SDS011;23859;50.672;7.164;2022-09-24T02:48:27;5.35;;;4.85;;
38053;SDS011;23859;50.672;7.164;2022-09-24T02:50:53;8.40;;;4.55;;
38053;SDS011;23859;50.672;7.164;2022-09-24T02:53:19;10.25;;;5.65;;
38053;SDS011;23859;50.672;7.164;2022-09-24T02:55:45;9.85;;;4.97;;
38053;SDS011;23859;50.672;7.164;2022-09-24T02:58:11;10.80;;;5.68;;
38053;SDS011;23859;50.672;7.164;2022-09-24T03:00:38;7.65;;;5.00;;
38053;SDS011;23859;50.672;7.164;2022-09-24T03:03:04;8.82;;;5.03;;
38053;SDS011;23859;50.672;7.164;2022-09-24T03:05:30;7.47;;;5.28;;
38053;SDS011;23859;50.672;7.164;2022-09-24T03:07:56;11.68;;;5.25;;
38053;SDS011;23859;50.672;7.164;2022-09-24T03:10:22;8.68;;;5.38;;
38053;SDS011;23859;50.672;7.164;2022-09-24T03:12:48;6.68;;;4.88;;
38053;SDS011;23859;50.672;7.164;2022-09-24T03:15:14;12.93;;;5.57;;
38053;SDS011;23859;50.672;7.164;2022-09-24T03:17:40;9.75;;;5.60;;
38053;SDS011;23859;50.672;7.164;2022-09-24T03:20:06;11.13;;;6.60;;
38053;SDS011;23859;50.672;7.164;2022-09-24T03:22:33;8.65;;;5.50;;
38053;SDS011;23859;50.672;7.164;2022-09-24T03:24:59;12.38;;;6.00;;
38053;SDS011;23859;50.672;7.164;2022-09-24T03:27:26;9.73;;;5.60;;
38053;SDS011;23859;50.672;7.164;2022-09-24T03:29:52;8.95;;;5.78;;
38053;SDS011;23859;50.672;7.164;2022-09-24T03:32:37;9.82;;;6.28;;
38053;SDS011;23859;50.672;7.164;2022-09-24T03:35:03;8.75;;;5.70;;
38053;SDS011;23859;50.672;7.164;2022-09-24T03:37:30;11.45;;;5.80;;
38053;SDS011;23859;50.672;7.164;2022-09-24T03:39:57;9.18;;;5.88;;
38053;SDS011;23859;50.672;7.164;2022-09-24T03:42:23;8.55;;;6.55;;
38053;SDS011;23859;50.672;7.164;2022-09-24T03:44:49;12.68;;;6.00;;
38053;SDS011;23859;50.672;7.164;2022-09-24T03:47:16;11.00;;;6.18;;
38053;SDS011;23859;50.672;7.164;2022-09-24T03:49:42;10.30;;;6.78;;
38053;SDS011;23859;50.672;7.164;2022-09-24T03:52:08;8.27;;;5.50;;
38053;SDS011;23859;50.672;7.164;2022-09-24T03:54:34;12.20;;;6.07;;
38053;SDS011;23859;50.672;7.164;2022-09-24T03:57:00;14.40;;;6.50;;
38053;SDS011;23859;50.672;7.164;2022-09-24T03:59:26;11.02;;;6.45;;
38053;SDS011;23859;50.672;7.164;2022-09-24T04:01:52;9.73;;;6.65;;
38053;SDS011;23859;50.672;7.164;2022-09-24T04:04:19;9.60;;;6.40;;
38053;SDS011;23859;50.672;7.164;2022-09-24T04:06:45;11.50;;;6.75;;
38053;SDS011;23859;50.672;7.164;2022-09-24T04:09:11;11.43;;;6.50;;
38053;SDS011;23859;50.672;7.164;2022-09-24T04:11:37;7.97;;;6.35;;
38053;SDS011;23859;50.672;7.164;2022-09-24T04:14:03;9.63;;;7.00;;
38053;SDS011;23859;50.672;7.164;2022-09-24T04:16:29;15.75;;;7.22;;
38053;SDS011;23859;50.672;7.164;2022-09-24T04:18:55;20.15;;;7.45;;
38053;SDS011;23859;50.672;7.164;2022-09-24T04:21:21;10.10;;;7.10;;
38053;SDS011;23859;50.672;7.164;2022-09-24T04:23:47;12.10;;;6.75;;
38053;SDS011;23859;50.672;7.164;2022-09-24T04:26:13;10.35;;;7.00;;
38053;SDS011;23859;50.672;7.164;2022-09-24T04:28:41;11.43;;;7.82;;
38053;SDS011;23859;50.672;7.164;2022-09-24T04:31:07;9.93;;;6.93;;
38053;SDS011;23859;50.672;7.164;2022-09-24T04:33:33;12.98;;;6.70;;
38053;SDS011;23859;50.672;7.164;2022-09-24T04:35:59;11.43;;;6.60;;
38053;SDS011;23859;50.672;7.164;2022-09-24T04:38:25;15.93;;;6.97;;
38053;SDS011;23859;50.672;7.164;2022-09-24T04:40:51;10.38;;;7.20;;
38053;SDS011;23859;50.672;7.164;2022-09-24T04:43:17;9.00;;;6.15;;
38053;SDS011;23859;50.672;7.164;2022-09-24T04:45:43;9.55;;;6.70;;
38053;SDS011;23859;50.672;7.164;2022-09-24T04:48:10;9.95;;;7.53;;
38053;SDS011;23859;50.672;7.164;2022-09-24T04:50:37;10.30;;;6.50;;
38053;SDS011;23859;50.672;7.164;2022-09-24T04:53:03;11.02;;;6.15;;
38053;SDS011;23859;50.672;7.164;2022-09-24T04:55:29;11.30;;;7.10;;
38053;SDS011;23859;50.672;7.164;2022-09-24T04:57:56;11.05;;;5.53;;
38053;SDS011;23859;50.672;7.164;2022-09-24T05:00:22;11.93;;;6.40;;
38053;SDS011;23859;50.672;7.164;2022-09-24T05:02:58;7.80;;;6.55;;
38053;SDS011;23859;50.672;7.164;2022-09-24T05:05:27;12.30;;;6.88;;
38053;SDS011;23859;50.672;7.164;2022-09-24T05:07:53;25.30;;;8.30;;
38053;SDS011;23859;50.672;7.164;2022-09-24T05:10:23;15.05;;;6.10;;
38053;SDS011;23859;50.672;7.164;2022-09-24T05:12:49;9.15;;;6.57;;
38053;SDS011;23859;50.672;7.164;2022-09-24T05:15:16;9.60;;;6.55;;
38053;SDS011;23859;50.672;7.164;2022-09-24T05:17:45;9.70;;;6.38;;
38053;SDS011;23859;50.672;7.164;2022-09-24T05:20:12;12.88;;;6.70;;
38053;SDS011;23859;50.672;7.164;2022-09-24T05:22:39;15.35;;;6.97;;
38053;SDS011;23859;50.672;7.164;2022-09-24T05:25:06;14.93;;;7.43;;
38053;SDS011;23859;50.672;7.164;2022-09-24T05:27:32;12.43;;;7.10;;
38053;SDS011;23859;50.672;7.164;2022-09-24T05:29:59;9.13;;;6.55;;
38053;SDS011;23859;50.672;7.164;2022-09-24T05:32:26;12.43;;;6.40;;
38053;SDS011;23859;50.672;7.164;2022-09-24T05:34:52;10.13;;;6.05;;
38053;SDS011;23859;50.672;7.164;2022-09-24T05:37:18;7.88;;;6.10;;
38053;SDS011;23859;50.672;7.164;2022-09-24T05:39:44;11.13;;;7.15;;
38053;SDS011;23859;50.672;7.164;2022-09-24T05:42:10;9.25;;;7.28;;
38053;SDS011;23859;50.672;7.164;2022-09-24T05:44:39;9.13;;;7.15;;
38053;SDS011;23859;50.672;7.164;2022-09-24T05:47:07;14.70;;;7.20;;
38053;SDS011;23859;50.672;7.164;2022-09-24T05:49:34;11.48;;;6.63;;
38053;SDS011;23859;50.672;7.164;2022-09-24T05:52:00;9.52;;;6.28;;
38053;SDS011;23859;50.672;7.164;2022-09-24T05:54:26;9.50;;;6.78;;
38053;SDS011;23859;50.672;7.164;2022-09-24T05:56:52;10.10;;;6.93;;
38053;SDS011;23859;50.672;7.164;2022-09-24T05:59:18;10.38;;;6.25;;
38053;SDS011;23859;50.672;7.164;2022-09-24T06:01:44;11.98;;;6.30;;
38053;SDS011;23859;50.672;7.164;2022-09-24T06:04:10;9.73;;;5.82;;
38053;SDS011;23859;50.672;7.164;2022-09-24T06:06:36;10.68;;;6.28;;
38053;SDS011;23859;50.672;7.164;2022-09-24T06:09:03;11.50;;;6.38;;
38053;SDS011;23859;50.672;7.164;2022-09-24T06:11:30;9.60;;;6.00;;
38053;SDS011;23859;50.672;7.164;2022-09-24T06:14:00;10.45;;;6.10;;
38053;SDS011;23859;50.672;7.164;2022-09-24T06:16:27;11.50;;;6.65;;
38053;SDS011;23859;50.672;7.164;2022-09-24T06:18:53;15.70;;;6.65;;
38053;SDS011;23859;50.672;7.164;2022-09-24T06:21:19;10.05;;;6.60;;
38053;SDS011;23859;50.672;7.164;2022-09-24T06:23:45;14.20;;;7.03;;
38053;SDS011;23859;50.672;7.164;2022-09-24T06:26:13;13.38;;;7.75;;
38053;SDS011;23859;50.672;7.164;2022-09-24T06:28:39;17.05;;;7.68;;
38053;SDS011;23859;50.672;7.164;2022-09-24T06:31:06;13.18;;;7.13;;
38053;SDS011;23859;50.672;7.164;2022-09-24T06:33:34;9.45;;;7.57;;
38053;SDS011;23859;50.672;7.164;2022-09-24T06:36:02;20.55;;;8.60;;
38053;SDS011;23859;50.672;7.164;2022-09-24T06:38:29;11.85;;;6.95;;
38053;SDS011;23859;50.672;7.164;2022-09-24T06:41:02;10.85;;;7.05;;
38053;SDS011;23859;50.672;7.164;2022-09-24T06:45:56;9.80;;;6.63;;
38053;SDS011;23859;50.672;7.164;2022-09-24T06:48:23;10.82;;;6.40;;
38053;SDS011;23859;50.672;7.164;2022-09-24T06:50:50;10.30;;;7.22;;
38053;SDS011;23859;50.672;7.164;2022-09-24T06:53:16;18.55;;;9.25;;
38053;SDS011;23859;50.672;7.164;2022-09-24T06:55:43;10.68;;;6.97;;
38053;SDS011;23859;50.672;7.164;2022-09-24T06:58:11;8.98;;;6.40;;
38053;SDS011;23859;50.672;7.164;2022-09-24T07:00:49;13.07;;;7.10;;
38053;SDS011;23859;50.672;7.164;2022-09-24T07:03:17;11.65;;;6.35;;
38053;SDS011;23859;50.672;7.164;2022-09-24T07:05:43;10.90;;;7.07;;
38053;SDS011;23859;50.672;7.164;2022-09-24T07:08:09;7.07;;;6.03;;
38053;SDS011;23859;50.672;7.164;2022-09-24T07:10:36;10.95;;;6.18;;
38053;SDS011;23859;50.672;7.164;2022-09-24T07:13:06;9.95;;;6.10;;
38053;SDS011;23859;50.672;7.164;2022-09-24T07:15:32;11.35;;;6.88;;
38053;SDS011;23859;50.672;7.164;2022-09-24T07:17:58;11.02;;;6.43;;
38053;SDS011;23859;50.672;7.164;2022-09-24T07:20:24;9.98;;;7.00;;
38053;SDS011;23859;50.672;7.164;2022-09-24T07:22:53;9.50;;;6.80;;
38053;SDS011;23859;50.672;7.164;2022-09-24T07:25:20;8.13;;;5.82;;
38053;SDS011;23859;50.672;7.164;2022-09-24T07:27:46;10.57;;;5.68;;
38053;SDS011;23859;50.672;7.164;2022-09-24T07:30:12;9.27;;;5.75;;
38053;SDS011;23859;50.672;7.164;2022-09-24T07:32:38;8.43;;;6.18;;
38053;SDS011;23859;50.672;7.164;2022-09-24T07:35:04;14.52;;;6.85;;
38053;SDS011;23859;50.672;7.164;2022-09-24T07:37:31;13.40;;;6.32;;
38053;SDS011;23859;50.672;7.164;2022-09-24T07:39:58;12.10;;;6.93;;
38053;SDS011;23859;50.672;7.164;2022-09-24T07:42:24;10.35;;;7.10;;
38053;SDS011;23859;50.672;7.164;2022-09-24T07:44:50;10.13;;;6.30;;
38053;SDS011;23859;50.672;7.164;2022-09-24T07:47:17;9.18;;;6.40;;
38053;SDS011;23859;50.672;7.164;2022-09-24T07:49:43;10.13;;;6.60;;
38053;SDS011;23859;50.672;7.164;2022-09-24T07:52:09;13.77;;;6.90;;
38053;SDS011;23859;50.672;7.164;2022-09-24T07:54:35;13.65;;;7.50;;
38053;SDS011;23859;50.672;7.164;2022-09-24T07:57:01;9.10;;;6.50;;
38053;SDS011;23859;50.672;7.164;2022-09-24T07:59:33;12.32;;;6.32;;
38053;SDS011;23859;50.672;7.164;2022-09-24T08:01:59;9.90;;;6.65;;
38053;SDS011;23859;50.672;7.164;2022-09-24T08:04:25;9.85;;;6.78;;
38053;SDS011;23859;50.672;7.164;2022-09-24T08:06:51;7.85;;;5.03;;
38053;SDS011;23859;50.672;7.164;2022-09-24T08:09:17;11.60;;;6.00;;
38053;SDS011;23859;50.672;7.164;2022-09-24T08:11:43;10.27;;;6.10;;
38053;SDS011;23859;50.672;7.164;2022-09-24T08:14:09;10.85;;;5.60;;
38053;SDS011;23859;50.672;7.164;2022-09-24T08:16:35;9.38;;;6.13;;
38053;SDS011;23859;50.672;7.164;2022-09-24T08:19:04;11.13;;;5.57;;
38053;SDS011;23859;50.672;7.164;2022-09-24T08:21:30;7.93;;;5.50;;
38053;SDS011;23859;50.672;7.164;2022-09-24T08:23:57;9.20;;;6.22;;
38053;SDS011;23859;50.672;7.164;2022-09-24T08:26:23;14.45;;;6.65;;
38053;SDS011;23859;50.672;7.164;2022-09-24T08:28:49;10.88;;;5.90;;
38053;SDS011;23859;50.672;7.164;2022-09-24T08:31:16;12.27;;;5.47;;
38053;SDS011;23859;50.672;7.164;2022-09-24T08:33:42;10.30;;;5.75;;
38053;SDS011;23859;50.672;7.164;2022-09-24T08:36:10;13.07;;;5.90;;
38053;SDS011;23859;50.672;7.164;2022-09-24T08:38:36;8.10;;;5.65;;
38053;SDS011;23859;50.672;7.164;2022-09-24T08:41:06;12.30;;;5.80;;
38053;SDS011;23859;50.672;7.164;2022-09-24T08:46:46;8.15;;;4.70;;
38053;SDS011;23859;50.672;7.164;2022-09-24T08:49:34;11.00;;;6.60;;
38053;SDS011;23859;50.672;7.164;2022-09-24T08:55:14;10.15;;;5.03;;
38053;SDS011;23859;50.672;7.164;2022-09-24T09:03:39;9.00;;;5.45;;
38053;SDS011;23859;50.672;7.164;2022-09-24T09:06:24;10.27;;;4.90;;
38053;SDS011;23859;50.672;7.164;2022-09-24T09:09:15;10.68;;;6.43;;
38053;SDS011;23859;50.672;7.164;2022-09-24T09:11:48;9.43;;;6.07;;
38053;SDS011;23859;50.672;7.164;2022-09-24T09:14:17;8.63;;;5.53;;
38053;SDS011;23859;50.672;7.164;2022-09-24T09:16:59;7.32;;;5.70;;
38053;SDS011;23859;50.672;7.164;2022-09-24T09:19:32;13.55;;;6.40;;
38053;SDS011;23859;50.672;7.164;2022-09-24T09:22:00;13.00;;;7.90;;
38053;SDS011;23859;50.672;7.164;2022-09-24T09:27:25;16.13;;;9.13;;
38053;SDS011;23859;50.672;7.164;2022-09-24T09:29:55;13.13;;;8.85;;
38053;SDS011;23859;50.672;7.164;2022-09-24T09:35:15;14.00;;;8.65;;
38053;SDS011;23859;50.672;7.164;2022-09-24T09:43:07;12.90;;;7.97;;
38053;SDS011;23859;50.672;7.164;2022-09-24T09:45:44;13.63;;;8.48;;
38053;SDS011;23859;50.672;7.164;2022-09-24T09:48:30;17.00;;;7.93;;
38053;SDS011;23859;50.672;7.164;2022-09-24T09:51:08;12.15;;;7.63;;
38053;SDS011;23859;50.672;7.164;2022-09-24T09:53:57;12.95;;;8.60;;
38053;SDS011;23859;50.672;7.164;2022-09-24T09:56:25;13.98;;;7.50;;
38053;SDS011;23859;50.672;7.164;2022-09-24T09:59:01;13.70;;;7.60;;
38053;SDS011;23859;50.672;7.164;2022-09-24T10:01:31;12.02;;;7.28;;
38053;SDS011;23859;50.672;7.164;2022-09-24T10:03:59;10.85;;;7.30;;
38053;SDS011;23859;50.672;7.164;2022-09-24T10:06:29;15.30;;;8.10;;
38053;SDS011;23859;50.672;7.164;2022-09-24T10:11:36;15.48;;;7.70;;
38053;SDS011;23859;50.672;7.164;2022-09-24T10:14:02;12.48;;;6.90;;
38053;SDS011;23859;50.672;7.164;2022-09-24T10:16:29;13.20;;;7.75;;
38053;SDS011;23859;50.672;7.164;2022-09-24T10:18:59;18.10;;;8.65;;
38053;SDS011;23859;50.672;7.164;2022-09-24T10:21:29;13.02;;;7.53;;
38053;SDS011;23859;50.672;7.164;2022-09-24T10:23:59;13.93;;;7.68;;
38053;SDS011;23859;50.672;7.164;2022-09-24T10:26:39;13.50;;;7.40;;
38053;SDS011;23859;50.672;7.164;2022-09-24T10:29:20;12.60;;;7.45;;
38053;SDS011;23859;50.672;7.164;2022-09-24T10:32:17;10.18;;;6.70;;
38053;SDS011;23859;50.672;7.164;2022-09-24T10:34:58;13.40;;;6.72;;
38053;SDS011;23859;50.672;7.164;2022-09-24T10:37:27;11.52;;;6.13;;
38053;SDS011;23859;50.672;7.164;2022-09-24T10:40:00;11.18;;;7.50;;
38053;SDS011;23859;50.672;7.164;2022-09-24T10:42:36;14.80;;;6.60;;
38053;SDS011;23859;50.672;7.164;2022-09-24T10:45:03;10.02;;;6.97;;
38053;SDS011;23859;50.672;7.164;2022-09-24T10:47:52;12.02;;;6.90;;
38053;SDS011;23859;50.672;7.164;2022-09-24T10:50:44;13.38;;;6.82;;
38053;SDS011;23859;50.672;7.164;2022-09-24T11:02:20;12.48;;;7.35;;
38053;SDS011;23859;50.672;7.164;2022-09-24T11:04:58;12.65;;;7.47;;
38053;SDS011;23859;50.672;7.164;2022-09-24T11:07:41;12.45;;;7.78;;
38053;SDS011;23859;50.672;7.164;2022-09-24T11:13:37;13.15;;;8.07;;
38053;SDS011;23859;50.672;7.164;2022-09-24T11:22:07;15.00;;;9.32;;
38053;SDS011;23859;50.672;7.164;2022-09-24T11:24:44;13.85;;;9.52;;
38053;SDS011;23859;50.672;7.164;2022-09-24T11:28:02;15.20;;;10.73;;
38053;SDS011;23859;50.672;7.164;2022-09-24T11:36:12;17.95;;;10.00;;
38053;SDS011;23859;50.672;7.164;2022-09-24T11:52:51;12.85;;;8.77;;
38053;SDS011;23859;50.672;7.164;2022-09-24T11:55:45;15.10;;;8.48;;
38053;SDS011;23859;50.672;7.164;2022-09-24T11:58:33;11.80;;;7.78;;
38053;SDS011;23859;50.672;7.164;2022-09-24T12:01:09;15.50;;;10.00;;
38053;SDS011;23859;50.672;7.164;2022-09-24T12:04:05;11.88;;;7.97;;
38053;SDS011;23859;50.672;7.164;2022-09-24T12:06:45;15.68;;;10.15;;
38053;SDS011;23859;50.672;7.164;2022-09-24T12:09:22;15.85;;;9.27;;
38053;SDS011;23859;50.672;7.164;2022-09-24T12:12:11;15.40;;;9.95;;
38053;SDS011;23859;50.672;7.164;2022-09-24T12:14:54;15.77;;;10.07;;
38053;SDS011;23859;50.672;7.164;2022-09-24T12:17:44;15.07;;;10.07;;
38053;SDS011;23859;50.672;7.164;2022-09-24T12:20:42;13.43;;;9.95;;
38053;SDS011;23859;50.672;7.164;2022-09-24T12:23:14;18.13;;;11.10;;
38053;SDS011;23859;50.672;7.164;2022-09-24T12:25:46;21.55;;;10.43;;
38053;SDS011;23859;50.672;7.164;2022-09-24T12:28:13;18.45;;;10.63;;
38053;SDS011;23859;50.672;7.164;2022-09-24T12:31:03;17.90;;;11.25;;
38053;SDS011;23859;50.672;7.164;2022-09-24T12:34:04;20.10;;;10.50;;
38053;SDS011;23859;50.672;7.164;2022-09-24T12:36:51;17.60;;;10.80;;
38053;SDS011;23859;50.672;7.164;2022-09-24T12:39:25;15.98;;;9.25;;
38053;SDS011;23859;50.672;7.164;2022-09-24T12:41:56;21.00;;;10.88;;
38053;SDS011;23859;50.672;7.164;2022-09-24T12:44:36;15.50;;;10.18;;
38053;SDS011;23859;50.672;7.164;2022-09-24T12:47:13;16.40;;;10.50;;
38053;SDS011;23859;50.672;7.164;2022-09-24T12:49:46;14.10;;;9.68;;
38053;SDS011;23859;50.672;7.164;2022-09-24T12:52:22;20.55;;;11.00;;
38053;SDS011;23859;50.672;7.164;2022-09-24T12:54:53;15.43;;;10.93;;
38053;SDS011;23859;50.672;7.164;2022-09-24T12:57:24;14.55;;;10.60;;
38053;SDS011;23859;50.672;7.164;2022-09-24T13:00:04;18.77;;;10.65;;
38053;SDS011;23859;50.672;7.164;2022-09-24T13:02:58;18.38;;;10.48;;
38053;SDS011;23859;50.672;7.164;2022-09-24T13:05:31;22.55;;;10.90;;
38053;SDS011;23859;50.672;7.164;2022-09-24T13:10:51;18.02;;;10.75;;
38053;SDS011;23859;50.672;7.164;2022-09-24T13:13:24;15.18;;;9.88;;
38053;SDS011;23859;50.672;7.164;2022-09-24T13:15:59;14.85;;;9.90;;
38053;SDS011;23859;50.672;7.164;2022-09-24T13:18:28;20.58;;;10.20;;
38053;SDS011;23859;50.672;7.164;2022-09-24T13:20:59;18.55;;;10.00;;
38053;SDS011;23859;50.672;7.164;2022-09-24T13:23:50;15.98;;;8.65;;
38053;SDS011;23859;50.672;7.164;2022-09-24T13:26:29;22.05;;;14.20;;
38053;SDS011;23859;50.672;7.164;2022-09-24T13:29:01;19.17;;;13.55;;
38053;SDS011;23859;50.672;7.164;2022-09-24T13:32:02;19.45;;;11.68;;
38053;SDS011;23859;50.672;7.164;2022-09-24T13:34:27;16.15;;;10.02;;
38053;SDS011;23859;50.672;7.164;2022-09-24T13:42:34;20.30;;;11.32;;
38053;SDS011;23859;50.672;7.164;2022-09-24T13:45:21;17.20;;;10.43;;
38053;SDS011;23859;50.672;7.164;2022-09-24T13:48:02;19.15;;;11.10;;
38053;SDS011;23859;50.672;7.164;2022-09-24T13:50:36;16.83;;;8.88;;
38053;SDS011;23859;50.672;7.164;2022-09-24T13:53:14;14.60;;;9.60;;
38053;SDS011;23859;50.672;7.164;2022-09-24T13:55:45;21.35;;;10.18;;
38053;SDS011;23859;50.672;7.164;2022-09-24T13:58:26;16.25;;;10.88;;
38053;SDS011;23859;50.672;7.164;2022-09-24T14:01:24;21.35;;;13.30;;
38053;SDS011;23859;50.672;7.164;2022-09-24T14:04:00;23.67;;;14.65;;
38053;SDS011;23859;50.672;7.164;2022-09-24T14:06:39;26.75;;;14.20;;
38053;SDS011;23859;50.672;7.164;2022-09-24T14:09:26;26.10;;;14.05;;
38053;SDS011;23859;50.672;7.164;2022-09-24T14:11:53;23.30;;;14.00;;
38053;SDS011;23859;50.672;7.164;2022-09-24T14:14:22;22.33;;;12.98;;
38053;SDS011;23859;50.672;7.164;2022-09-24T14:16:51;27.30;;;14.02;;
38053;SDS011;23859;50.672;7.164;2022-09-24T14:19:20;20.92;;;12.80;;
38053;SDS011;23859;50.672;7.164;2022-09-24T14:21:49;25.05;;;14.45;;
38053;SDS011;23859;50.672;7.164;2022-09-24T14:24:20;23.85;;;14.00;;
38053;SDS011;23859;50.672;7.164;2022-09-24T14:26:51;21.80;;;14.73;;
38053;SDS011;23859;50.672;7.164;2022-09-24T14:29:37;32.20;;;15.18;;
38053;SDS011;23859;50.672;7.164;2022-09-24T14:34:44;22.80;;;14.80;;
38053;SDS011;23859;50.672;7.164;2022-09-24T14:37:16;27.13;;;16.23;;
38053;SDS011;23859;50.672;7.164;2022-09-24T14:40:06;27.23;;;15.95;;
38053;SDS011;23859;50.672;7.164;2022-09-24T14:42:41;31.55;;;18.55;;
38053;SDS011;23859;50.672;7.164;2022-09-24T14:45:16;34.17;;;19.67;;
38053;SDS011;23859;50.672;7.164;2022-09-24T14:47:43;33.40;;;18.15;;
38053;SDS011;23859;50.672;7.164;2022-09-24T14:52:56;27.92;;;21.08;;
38053;SDS011;23859;50.672;7.164;2022-09-24T14:55:37;36.40;;;19.35;;
38053;SDS011;23859;50.672;7.164;2022-09-24T14:58:21;35.95;;;20.15;;
38053;SDS011;23859;50.672;7.164;2022-09-24T15:00:53;34.47;;;21.73;;
38053;SDS011;23859;50.672;7.164;2022-09-24T15:06:20;38.25;;;22.15;;
38053;SDS011;23859;50.672;7.164;2022-09-24T15:11:37;39.95;;;23.58;;
38053;SDS011;23859;50.672;7.164;2022-09-24T15:16:37;41.03;;;23.90;;
38053;SDS011;23859;50.672;7.164;2022-09-24T15:21:41;42.83;;;25.80;;
38053;SDS011;23859;50.672;7.164;2022-09-24T15:24:08;46.45;;;26.52;;
38053;SDS011;23859;50.672;7.164;2022-09-24T15:26:34;46.45;;;28.17;;
38053;SDS011;23859;50.672;7.164;2022-09-24T15:29:03;40.95;;;26.58;;
38053;SDS011;23859;50.672;7.164;2022-09-24T15:31:31;41.90;;;26.73;;
38053;SDS011;23859;50.672;7.164;2022-09-24T15:33:57;45.10;;;28.73;;
38053;SDS011;23859;50.672;7.164;2022-09-24T15:36:23;49.67;;;28.55;;
38053;SDS011;23859;50.672;7.164;2022-09-24T15:38:50;46.08;;;27.58;;
38053;SDS011;23859;50.672;7.164;2022-09-24T15:41:22;43.75;;;28.80;;
38053;SDS011;23859;50.672;7.164;2022-09-24T15:43:48;47.53;;;29.40;;
38053;SDS011;23859;50.672;7.164;2022-09-24T15:46:14;47.58;;;28.70;;
38053;SDS011;23859;50.672;7.164;2022-09-24T15:48:40;51.55;;;31.55;;
38053;SDS011;23859;50.672;7.164;2022-09-24T15:51:08;54.65;;;32.83;;
38053;SDS011;23859;50.672;7.164;2022-09-24T15:53:35;60.95;;;32.85;;
38053;SDS011;23859;50.672;7.164;2022-09-24T15:56:01;50.67;;;31.98;;
38053;SDS011;23859;50.672;7.164;2022-09-24T15:58:27;52.63;;;31.25;;
38053;SDS011;23859;50.672;7.164;2022-09-24T16:00:54;50.17;;;30.33;;
38053;SDS011;23859;50.672;7.164;2022-09-24T16:05:50;50.85;;;31.05;;
38053;SDS011;23859;50.672;7.164;2022-09-24T16:08:17;48.28;;;30.05;;
38053;SDS011;23859;50.672;7.164;2022-09-24T16:10:43;45.55;;;29.60;;
38053;SDS011;23859;50.672;7.164;2022-09-24T16:13:11;55.35;;;31.70;;
38053;SDS011;23859;50.672;7.164;2022-09-24T16:15:38;53.03;;;30.08;;
38053;SDS011;23859;50.672;7.164;2022-09-24T16:18:05;55.78;;;32.13;;
38053;SDS011;23859;50.672;7.164;2022-09-24T16:20:36;50.15;;;31.17;;
38053;SDS011;23859;50.672;7.164;2022-09-24T16:23:03;53.28;;;30.77;;
38053;SDS011;23859;50.672;7.164;2022-09-24T16:25:30;49.35;;;29.60;;
38053;SDS011;23859;50.672;7.164;2022-09-24T16:27:56;46.50;;;29.55;;
38053;SDS011;23859;50.672;7.164;2022-09-24T16:30:23;42.15;;;27.58;;
38053;SDS011;23859;50.672;7.164;2022-09-24T16:32:49;46.70;;;28.60;;
38053;SDS011;23859;50.672;7.164;2022-09-24T16:35:15;45.70;;;27.85;;
38053;SDS011;23859;50.672;7.164;2022-09-24T16:37:41;48.63;;;28.08;;
38053;SDS011;23859;50.672;7.164;2022-09-24T16:40:08;48.70;;;28.95;;
38053;SDS011;23859;50.672;7.164;2022-09-24T16:42:34;50.10;;;29.73;;
38053;SDS011;23859;50.672;7.164;2022-09-24T16:45:00;49.88;;;28.90;;